createdAt,value
2017-09-02T00:00:13.364Z,10.00
2017-09-02T00:02:40.190Z,10.10
2017-09-02T00:05:07.042Z,9.27
2017-09-02T00:10:18.238Z,10.13
2017-09-02T00:12:45.073Z,8.40
2017-09-02T00:15:12.672Z,9.13
2017-09-02T00:17:39.900Z,9.70
2017-09-02T00:20:07.512Z,6.90
2017-09-02T00:22:35.121Z,10.77
2017-09-02T00:25:02.741Z,9.97
2017-09-02T00:27:30.700Z,8.97
2017-09-02T00:29:59.163Z,7.00
2017-09-02T00:32:25.997Z,6.73
2017-09-02T00:34:53.589Z,6.80
2017-09-02T00:37:20.428Z,11.10
2017-09-02T00:39:47.261Z,6.97
2017-09-02T00:42:15.747Z,12.80
2017-09-02T00:44:42.840Z,7.20
2017-09-02T00:47:10.425Z,7.40
2017-09-02T00:49:37.248Z,9.77
2017-09-02T00:52:04.092Z,8.40
2017-09-02T00:54:31.680Z,6.57
2017-09-02T00:57:00.064Z,7.03
2017-09-02T00:59:27.688Z,8.73
2017-09-02T01:01:54.525Z,8.70
2017-09-02T01:04:21.744Z,9.30
2017-09-02T01:06:48.561Z,7.63
2017-09-02T01:09:15.808Z,8.90
2017-09-02T01:11:43.029Z,9.10
2017-09-02T01:14:11.519Z,9.00
2017-09-02T01:16:38.724Z,8.60
2017-09-02T01:19:05.970Z,6.63
2017-09-02T01:21:32.795Z,7.80
2017-09-02T01:24:01.168Z,7.33
2017-09-02T01:26:29.125Z,7.67
2017-09-02T01:28:56.341Z,12.20
2017-09-02T01:31:23.560Z,7.13
2017-09-02T01:33:50.384Z,8.50
2017-09-02T01:36:18.069Z,8.80
2017-09-02T01:38:45.284Z,7.63
2017-09-02T01:41:12.924Z,7.73
2017-09-02T01:43:40.541Z,8.43
2017-09-02T01:46:07.764Z,8.13
2017-09-02T01:48:34.980Z,8.60
2017-09-02T01:51:01.800Z,7.77
2017-09-02T01:53:30.132Z,8.77
2017-09-02T01:55:58.599Z,7.60
2017-09-02T01:58:25.817Z,9.33
2017-09-02T02:00:53.048Z,9.13
2017-09-02T02:03:19.936Z,9.73
2017-09-02T02:05:47.149Z,8.10
2017-09-02T02:11:04.341Z,6.70
2017-09-02T02:13:32.300Z,7.43
2017-09-02T02:15:59.518Z,7.83
2017-09-02T02:18:27.120Z,7.73
2017-09-02T02:20:53.964Z,8.27
2017-09-02T02:23:20.798Z,8.73
2017-09-02T02:25:47.648Z,6.70
2017-09-02T02:28:14.502Z,7.30
2017-09-02T02:30:41.369Z,7.80
2017-09-02T02:33:08.620Z,7.23
2017-09-02T02:35:35.832Z,6.77
2017-09-02T02:38:02.652Z,7.40
2017-09-02T02:40:29.479Z,6.60
2017-09-02T02:42:57.105Z,8.00
2017-09-02T02:45:24.537Z,7.03
2017-09-02T02:47:51.401Z,8.83
2017-09-02T02:50:18.229Z,6.27
2017-09-02T02:52:45.100Z,7.80
2017-09-02T02:55:11.921Z,7.77
2017-09-02T02:57:38.782Z,6.50
2017-09-02T03:00:06.364Z,6.10
2017-09-02T03:02:33.181Z,7.77
2017-09-02T03:05:01.660Z,10.70
2017-09-02T03:07:28.905Z,9.20
2017-09-02T03:09:56.896Z,6.70
2017-09-02T03:12:25.228Z,10.93
2017-09-02T03:14:53.759Z,7.23
2017-09-02T03:17:20.585Z,8.23
2017-09-02T03:19:48.564Z,5.50
2017-09-02T03:22:15.384Z,6.20
2017-09-02T03:24:42.250Z,7.17
2017-09-02T03:27:09.508Z,6.20
2017-09-02T03:29:37.844Z,7.20
2017-09-02T03:32:04.663Z,7.90
2017-09-02T03:34:31.480Z,7.03
2017-09-02T03:36:59.814Z,6.83
2017-09-02T03:39:27.048Z,7.23
2017-09-02T03:41:53.892Z,6.73
2017-09-02T03:44:21.111Z,7.87
2017-09-02T03:46:48.363Z,6.23
2017-09-02T03:49:16.322Z,7.60
2017-09-02T03:51:43.585Z,9.80
2017-09-02T03:54:11.544Z,9.10
2017-09-02T03:56:39.508Z,6.83
2017-09-02T03:59:07.097Z,6.80
2017-09-02T04:01:33.925Z,6.50
2017-09-02T04:04:00.812Z,7.97
2017-09-02T04:06:27.640Z,10.43
2017-09-02T04:08:54.904Z,7.90
2017-09-02T04:11:22.137Z,6.33
2017-09-02T04:13:48.993Z,6.17
2017-09-02T04:16:15.821Z,8.50
2017-09-02T04:18:42.693Z,10.77
2017-09-02T04:21:11.179Z,8.10
2017-09-02T04:23:38.002Z,7.60
2017-09-02T04:26:05.615Z,6.37
2017-09-02T04:28:33.229Z,5.77
2017-09-02T04:31:01.265Z,6.23
2017-09-02T04:33:28.500Z,6.47
2017-09-02T04:35:56.108Z,7.17
2017-09-02T04:38:22.929Z,8.83
2017-09-02T04:40:49.773Z,7.10
2017-09-02T04:43:16.612Z,9.40
2017-09-02T04:45:43.852Z,10.07
2017-09-02T04:48:10.676Z,9.27
2017-09-02T04:50:37.541Z,7.73
2017-09-02T04:53:05.201Z,6.30
2017-09-02T04:55:32.024Z,5.60
2017-09-02T04:57:59.999Z,9.40
2017-09-02T05:00:27.434Z,10.03
2017-09-02T05:02:55.412Z,10.83
2017-09-02T05:05:22.236Z,6.83
2017-09-02T05:07:49.076Z,8.07
2017-09-02T05:10:15.896Z,9.20
2017-09-02T05:12:43.141Z,9.97
2017-09-02T05:15:09.960Z,8.40
2017-09-02T05:17:36.804Z,7.93
2017-09-02T05:20:04.396Z,9.63
2017-09-02T05:22:32.026Z,8.07
2017-09-02T05:25:00.505Z,9.40
2017-09-02T05:27:28.104Z,10.43
2017-09-02T05:29:54.927Z,6.60
2017-09-02T05:32:21.768Z,6.77
2017-09-02T05:34:49.398Z,11.80
2017-09-02T05:37:16.233Z,10.20
2017-09-02T05:39:43.608Z,9.33
2017-09-02T05:42:10.445Z,10.77
2017-09-02T05:44:38.082Z,10.10
2017-09-02T05:47:06.556Z,6.30
2017-09-02T05:49:34.196Z,6.83
2017-09-02T05:52:01.434Z,6.03
2017-09-02T05:54:29.917Z,10.13
2017-09-02T05:56:56.793Z,8.90
2017-09-02T05:59:23.616Z,7.63
2017-09-02T06:01:50.444Z,6.33
2017-09-02T06:04:18.044Z,10.60
2017-09-02T06:06:44.893Z,8.27
2017-09-02T06:09:11.721Z,10.50
2017-09-02T06:11:40.207Z,8.37
2017-09-02T06:14:07.803Z,8.70
2017-09-02T06:16:34.668Z,6.90
2017-09-02T06:19:01.489Z,9.73
2017-09-02T06:21:28.716Z,10.10
2017-09-02T06:23:55.540Z,9.90
2017-09-02T06:26:22.396Z,6.57
2017-09-02T06:28:49.258Z,10.93
2017-09-02T06:31:16.093Z,6.10
2017-09-02T06:33:42.940Z,8.03
2017-09-02T06:36:10.168Z,8.57
2017-09-02T06:38:50.555Z,14.40
2017-09-02T06:41:17.380Z,7.43
2017-09-02T06:43:44.204Z,5.57
2017-09-02T06:46:11.027Z,6.20
2017-09-02T06:48:37.875Z,14.53
2017-09-02T06:51:04.720Z,13.30
2017-09-02T06:53:31.940Z,8.93
2017-09-02T06:55:58.764Z,6.53
2017-09-02T06:58:25.982Z,7.40
2017-09-02T07:00:52.804Z,8.70
2017-09-02T07:03:20.772Z,10.20
2017-09-02T07:05:48.796Z,10.73
2017-09-02T07:11:06.052Z,8.37
2017-09-02T07:13:33.673Z,9.00
2017-09-02T07:16:03.280Z,12.33
2017-09-02T07:18:31.676Z,7.50
2017-09-02T07:20:58.502Z,8.57
2017-09-02T07:23:25.329Z,8.70
2017-09-02T07:25:52.548Z,6.97
2017-09-02T07:28:20.559Z,11.47
2017-09-02T07:30:47.780Z,8.53
2017-09-02T07:33:16.257Z,10.50
2017-09-02T07:35:43.081Z,7.93
2017-09-02T07:40:59.097Z,8.50
2017-09-02T07:43:25.932Z,8.47
2017-09-02T07:45:52.811Z,10.50
2017-09-02T07:48:20.412Z,7.63
2017-09-02T07:50:47.272Z,10.07
2017-09-02T07:53:14.497Z,8.40
2017-09-02T07:55:41.324Z,8.67
2017-09-02T07:58:08.157Z,12.20
2017-09-02T08:00:34.997Z,8.97
2017-09-02T08:03:01.824Z,7.50
2017-09-02T08:05:28.649Z,7.53
2017-09-02T08:10:46.470Z,10.23
2017-09-02T08:13:14.108Z,14.67
2017-09-02T08:15:40.927Z,9.27
2017-09-02T08:18:07.799Z,9.60
2017-09-02T08:20:35.392Z,10.60
2017-09-02T08:23:02.980Z,11.53
2017-09-02T08:25:31.455Z,11.60
2017-09-02T08:27:58.298Z,17.63
2017-09-02T08:30:25.891Z,12.10
2017-09-02T08:32:52.738Z,10.10
2017-09-02T08:35:20.339Z,9.63
2017-09-02T08:40:36.033Z,10.53
2017-09-02T08:43:02.857Z,10.67
2017-09-02T08:45:29.725Z,9.70
2017-09-02T08:47:58.215Z,7.17
2017-09-02T08:50:25.040Z,7.70
2017-09-02T08:52:51.865Z,11.40
2017-09-02T08:55:18.692Z,9.30
2017-09-02T08:57:47.224Z,12.70
2017-09-02T09:00:14.464Z,10.20
2017-09-02T09:02:41.684Z,8.90
2017-09-02T09:05:09.648Z,9.80
2017-09-02T09:07:36.493Z,12.50
2017-09-02T09:10:03.324Z,6.70
2017-09-02T09:12:31.727Z,7.20
2017-09-02T09:14:58.560Z,10.60
2017-09-02T09:17:26.888Z,9.10
2017-09-02T09:19:53.705Z,9.87
2017-09-02T09:22:20.924Z,10.43
2017-09-02T09:24:48.513Z,8.60
2017-09-02T09:27:15.339Z,9.47
2017-09-02T09:29:42.932Z,8.37
2017-09-02T09:32:10.525Z,7.70
2017-09-02T09:34:37.824Z,11.70
2017-09-02T09:37:09.573Z,6.70
2017-09-02T09:39:37.953Z,9.27
2017-09-02T09:42:05.177Z,8.33
2017-09-02T09:44:32.425Z,8.67
2017-09-02T09:46:59.253Z,11.57
2017-09-02T09:49:26.477Z,9.53
2017-09-02T09:51:53.301Z,8.70
2017-09-02T09:54:20.133Z,9.57
2017-09-02T09:56:48.000Z,8.13
2017-09-02T09:59:15.233Z,10.07
2017-09-02T10:01:42.480Z,13.23
2017-09-02T10:04:10.076Z,8.13
2017-09-02T10:06:37.320Z,7.47
2017-09-02T10:09:04.545Z,8.20
2017-09-02T10:11:32.156Z,7.87
2017-09-02T10:13:58.976Z,7.20
2017-09-02T10:16:25.900Z,6.63
2017-09-02T10:18:52.724Z,12.10
2017-09-02T10:21:20.312Z,7.33
2017-09-02T10:23:47.147Z,9.43
2017-09-02T10:26:14.743Z,9.00
2017-09-02T10:28:43.064Z,6.83
2017-09-02T10:31:09.902Z,5.27
2017-09-02T10:33:36.754Z,6.40
2017-09-02T10:36:03.992Z,8.07
2017-09-02T10:41:20.197Z,7.60
2017-09-02T10:43:47.439Z,7.00
2017-09-02T10:46:14.668Z,7.63
2017-09-02T10:48:42.169Z,7.30
2017-09-02T10:51:09.385Z,5.30
2017-09-02T10:53:36.617Z,7.90
2017-09-02T10:56:03.444Z,6.93
2017-09-02T10:58:30.281Z,6.77
2017-09-02T11:00:57.892Z,5.87
2017-09-02T11:03:25.144Z,6.20
2017-09-02T11:05:52.009Z,6.93
2017-09-02T11:11:09.029Z,8.50
2017-09-02T11:13:35.864Z,6.70
2017-09-02T11:16:03.108Z,5.57
2017-09-02T11:18:31.446Z,7.20
2017-09-02T11:20:58.659Z,8.43
2017-09-02T11:23:25.511Z,7.70
2017-09-02T11:25:52.732Z,7.40
2017-09-02T11:28:19.587Z,6.20
2017-09-02T11:30:46.824Z,6.30
2017-09-02T11:33:13.684Z,5.80
2017-09-02T11:35:40.513Z,7.00
2017-09-02T11:40:56.618Z,7.27
2017-09-02T11:43:24.245Z,4.20
2017-09-02T11:45:51.088Z,6.53
2017-09-02T11:48:18.359Z,4.43
2017-09-02T11:50:45.180Z,6.37
2017-09-02T11:53:12.412Z,5.40
2017-09-02T11:55:39.240Z,8.43
2017-09-02T11:58:07.586Z,7.43
2017-09-02T12:00:35.062Z,5.10
2017-09-02T12:03:02.698Z,6.37
2017-09-02T12:05:29.936Z,4.57
2017-09-02T12:07:57.581Z,5.50
2017-09-02T12:10:24.836Z,4.80
2017-09-02T12:12:51.671Z,7.93
2017-09-02T12:15:18.916Z,8.67
2017-09-02T12:17:45.756Z,7.17
2017-09-02T12:20:12.601Z,5.60
2017-09-02T12:22:39.820Z,5.50
2017-09-02T12:25:06.669Z,3.97
2017-09-02T12:27:33.496Z,4.70
2017-09-02T12:30:01.490Z,6.63
2017-09-02T12:32:28.353Z,4.30
2017-09-02T12:34:55.177Z,4.40
2017-09-02T12:37:22.428Z,5.03
2017-09-02T12:39:50.389Z,8.27
2017-09-02T12:42:17.233Z,6.70
2017-09-02T12:44:44.088Z,4.70
2017-09-02T12:47:10.944Z,4.40
2017-09-02T12:49:37.769Z,6.83
2017-09-02T12:52:04.935Z,4.37
2017-09-02T12:54:31.764Z,4.10
2017-09-02T12:56:58.605Z,5.07
2017-09-02T12:59:25.452Z,5.10
2017-09-02T13:01:52.272Z,5.00
2017-09-02T13:04:19.509Z,7.40
2017-09-02T13:06:46.332Z,4.73
2017-09-02T13:09:13.201Z,7.90
2017-09-02T13:11:40.417Z,5.93
2017-09-02T13:14:07.293Z,5.13
2017-09-02T13:16:34.126Z,5.90
2017-09-02T13:19:02.805Z,4.23
2017-09-02T13:21:29.656Z,3.70
2017-09-02T13:23:56.888Z,4.50
2017-09-02T13:26:23.736Z,3.87
2017-09-02T13:28:50.744Z,4.60
2017-09-02T13:31:17.565Z,4.43
2017-09-02T13:33:44.789Z,8.10
2017-09-02T13:36:12.373Z,5.30
2017-09-02T13:41:24.893Z,4.63
2017-09-02T13:43:51.732Z,6.23
2017-09-02T13:46:19.850Z,5.63
2017-09-02T13:48:47.137Z,4.30
2017-09-02T13:51:14.540Z,6.80
2017-09-02T13:53:41.352Z,3.80
2017-09-02T13:56:08.172Z,4.60
2017-09-02T13:58:36.508Z,4.07
2017-09-02T14:01:03.337Z,6.70
2017-09-02T14:03:30.916Z,3.87
2017-09-02T14:05:57.744Z,3.80
2017-09-02T14:08:24.989Z,7.70
2017-09-02T14:10:54.005Z,4.87
2017-09-02T14:13:21.261Z,4.67
2017-09-02T14:15:50.504Z,6.20
2017-09-02T14:18:18.468Z,6.60
2017-09-02T14:20:46.074Z,6.00
2017-09-02T14:23:12.941Z,7.00
2017-09-02T14:25:39.764Z,5.43
2017-09-02T14:28:07.379Z,7.13
2017-09-02T14:30:34.600Z,4.60
2017-09-02T14:33:01.412Z,4.63
2017-09-02T14:35:28.652Z,6.60
2017-09-02T14:43:12.497Z,5.50
2017-09-02T14:45:39.342Z,6.03
2017-09-02T14:48:06.165Z,5.03
2017-09-02T14:50:33.396Z,4.40
2017-09-02T14:53:00.218Z,3.40
2017-09-02T14:55:27.805Z,4.50
2017-09-02T14:57:56.272Z,4.73
2017-09-02T15:00:23.108Z,5.43
2017-09-02T15:02:50.364Z,5.53
2017-09-02T15:05:17.957Z,4.67
2017-09-02T15:07:44.996Z,4.90
2017-09-02T15:10:12.217Z,4.60
2017-09-02T15:12:39.837Z,5.53
2017-09-02T15:15:06.660Z,5.93
2017-09-02T15:17:33.488Z,4.67
2017-09-02T15:20:00.708Z,5.80
2017-09-02T15:22:27.545Z,5.00
2017-09-02T15:24:55.641Z,3.83
2017-09-02T15:27:22.860Z,5.23
2017-09-02T15:29:50.104Z,4.60
2017-09-02T15:32:17.355Z,5.00
2017-09-02T15:34:44.196Z,3.67
2017-09-02T15:37:11.793Z,3.60
2017-09-02T15:39:39.508Z,4.70
2017-09-02T15:42:06.723Z,8.60
2017-09-02T15:44:33.557Z,3.80
2017-09-02T15:47:00.376Z,4.70
2017-09-02T15:49:27.201Z,5.13
2017-09-02T15:51:55.541Z,3.80
2017-09-02T15:54:22.759Z,3.57
2017-09-02T15:56:49.616Z,6.93
2017-09-02T15:59:16.441Z,5.93
2017-09-02T16:01:44.433Z,5.10
2017-09-02T16:04:11.308Z,6.50
2017-09-02T16:06:38.553Z,12.73
2017-09-02T16:09:08.936Z,23.13
2017-09-02T16:11:36.476Z,18.20
2017-09-02T16:14:03.296Z,12.17
2017-09-02T16:16:30.528Z,12.13
2017-09-02T16:18:58.013Z,17.63
2017-09-02T16:21:25.245Z,17.93
2017-09-02T16:23:52.092Z,20.03
2017-09-02T16:26:18.928Z,23.07
2017-09-02T16:28:45.816Z,20.70
2017-09-02T16:31:12.645Z,19.00
2017-09-02T16:33:39.472Z,20.57
2017-09-02T16:36:06.307Z,18.07
2017-09-02T16:38:33.149Z,17.33
2017-09-02T16:40:59.979Z,17.47
2017-09-02T16:43:27.937Z,16.53
2017-09-02T16:45:54.768Z,16.87
2017-09-02T16:48:21.989Z,15.60
2017-09-02T16:50:48.845Z,12.50
2017-09-02T16:53:15.669Z,12.80
2017-09-02T16:55:42.513Z,11.73
2017-09-02T16:58:09.357Z,17.47
2017-09-02T17:00:36.180Z,12.60
2017-09-02T17:03:03.404Z,12.93
2017-09-02T17:05:30.996Z,12.50
2017-09-02T17:07:58.641Z,14.87
2017-09-02T17:10:26.240Z,13.00
2017-09-02T17:12:53.068Z,10.30
2017-09-02T17:15:19.897Z,11.40
2017-09-02T17:17:46.808Z,12.27
2017-09-02T17:20:13.650Z,11.80
2017-09-02T17:22:40.473Z,12.30
2017-09-02T17:25:07.296Z,11.70
2017-09-02T17:27:34.129Z,8.87
2017-09-02T17:30:00.977Z,8.97
2017-09-02T17:32:28.216Z,10.00
2017-09-02T17:34:55.432Z,9.23
2017-09-02T17:37:22.261Z,8.87
2017-09-02T17:39:49.080Z,11.33
2017-09-02T17:42:15.909Z,10.83
2017-09-02T17:44:43.075Z,13.60
2017-09-02T17:47:10.353Z,10.10
2017-09-02T17:49:37.209Z,10.13
2017-09-02T17:52:04.443Z,10.33
2017-09-02T17:54:31.269Z,8.80
2017-09-02T17:56:58.517Z,7.67
2017-09-02T17:59:25.350Z,7.80
2017-09-02T18:01:52.672Z,13.00
2017-09-02T18:04:20.709Z,9.97
2017-09-02T18:06:47.580Z,8.67
2017-09-02T18:09:15.356Z,8.43
2017-09-02T18:11:42.208Z,7.20
2017-09-02T18:14:09.037Z,7.60
2017-09-02T18:16:35.916Z,9.33
2017-09-02T18:19:03.184Z,8.90
2017-09-02T18:21:30.045Z,8.17
2017-09-02T18:23:56.868Z,7.23
2017-09-02T18:26:25.192Z,9.63
2017-09-02T18:28:52.417Z,7.90
2017-09-02T18:31:20.018Z,9.47
2017-09-02T18:33:46.866Z,7.10
2017-09-02T18:36:14.521Z,7.43
2017-09-02T18:38:42.616Z,9.30
2017-09-02T18:41:09.532Z,5.70
2017-09-02T18:43:36.392Z,9.03
2017-09-02T18:46:05.236Z,8.03
2017-09-02T18:48:32.079Z,6.80
2017-09-02T18:50:58.904Z,5.80
2017-09-02T18:53:26.532Z,6.63
2017-09-02T18:55:53.762Z,6.20
2017-09-02T18:58:20.583Z,9.17
2017-09-02T19:00:48.068Z,5.00
2017-09-02T19:03:14.899Z,5.07
2017-09-02T19:05:41.720Z,8.13
2017-09-02T19:10:59.032Z,8.03
2017-09-02T19:13:26.922Z,9.13
2017-09-02T19:15:54.170Z,6.77
2017-09-02T19:18:22.245Z,5.50
2017-09-02T19:20:50.795Z,5.03
2017-09-02T19:23:20.081Z,7.70
2017-09-02T19:25:46.952Z,5.77
2017-09-02T19:28:13.797Z,4.90
2017-09-02T19:30:41.036Z,6.03
2017-09-02T19:33:07.888Z,5.90
2017-09-02T19:35:34.707Z,6.13
2017-09-02T19:38:01.548Z,6.43
2017-09-02T19:40:28.377Z,4.97
2017-09-02T19:42:55.625Z,5.33
2017-09-02T19:45:22.444Z,6.17
2017-09-02T19:47:49.294Z,5.80
2017-09-02T19:50:16.508Z,9.30
2017-09-02T19:52:43.372Z,5.07
2017-09-02T19:55:10.192Z,5.23
2017-09-02T19:57:37.089Z,6.57
2017-09-02T20:00:04.328Z,6.30
2017-09-02T20:02:31.834Z,7.77
2017-09-02T20:04:58.804Z,6.17
2017-09-02T20:07:25.645Z,6.13
2017-09-02T20:09:52.477Z,5.87
2017-09-02T20:12:19.328Z,5.77
2017-09-02T20:14:46.172Z,5.07
2017-09-02T20:17:12.985Z,5.83
2017-09-02T20:19:39.824Z,5.40
2017-09-02T20:22:06.662Z,6.50
2017-09-02T20:24:33.908Z,6.90
2017-09-02T20:27:01.901Z,7.57
2017-09-02T20:29:29.141Z,4.83
2017-09-02T20:31:55.976Z,5.50
2017-09-02T20:34:23.580Z,7.63
2017-09-02T20:36:50.396Z,5.13
2017-09-02T20:39:18.887Z,6.20
2017-09-02T20:41:46.113Z,6.97
2017-09-02T20:44:12.960Z,5.93
2017-09-02T20:49:18.476Z,6.73
2017-09-02T20:51:45.321Z,6.40
2017-09-02T20:54:12.917Z,4.77
2017-09-02T20:56:39.800Z,5.60
2017-09-02T20:59:07.012Z,4.90
2017-09-02T21:01:34.231Z,8.73
2017-09-02T21:04:01.054Z,6.37
2017-09-02T21:06:27.944Z,5.97
2017-09-02T21:11:40.404Z,6.23
2017-09-02T21:14:07.240Z,5.40
2017-09-02T21:16:34.064Z,7.00
2017-09-02T21:19:00.954Z,5.80
2017-09-02T21:21:27.797Z,6.57
2017-09-02T21:23:54.640Z,4.90
2017-09-02T21:26:21.474Z,6.50
2017-09-02T21:28:49.292Z,5.43
2017-09-02T21:31:16.520Z,5.93
2017-09-02T21:33:43.366Z,5.60
2017-09-02T21:36:10.200Z,7.60
2017-09-02T21:38:37.424Z,6.83
2017-09-02T21:41:04.562Z,5.87
2017-09-02T21:43:31.379Z,8.47
2017-09-02T21:45:58.224Z,5.27
2017-09-02T21:48:25.444Z,6.53
2017-09-02T21:50:52.296Z,9.10
2017-09-02T21:53:19.124Z,5.30
2017-09-02T21:55:45.976Z,4.40
2017-09-02T21:58:12.819Z,5.60
2017-09-02T22:00:39.680Z,5.33
2017-09-02T22:03:06.513Z,5.13
2017-09-02T22:05:33.338Z,5.40
2017-09-02T22:08:00.177Z,5.30
2017-09-02T22:10:27.020Z,5.80
2017-09-02T22:12:53.872Z,7.00
2017-09-02T22:15:20.693Z,5.57
2017-09-02T22:17:47.552Z,5.57
2017-09-02T22:20:14.376Z,6.70
2017-09-02T22:22:41.249Z,7.07
2017-09-02T22:25:08.867Z,5.87
2017-09-02T22:27:35.761Z,6.20
2017-09-02T22:30:02.997Z,5.27
2017-09-02T22:32:29.821Z,5.90
2017-09-02T22:34:57.040Z,5.80
2017-09-02T22:37:23.892Z,6.27
2017-09-02T22:39:51.141Z,5.37
2017-09-02T22:42:18.368Z,5.37
2017-09-02T22:44:46.599Z,5.10
2017-09-02T22:47:13.439Z,6.70
2017-09-02T22:49:40.288Z,6.20
2017-09-02T22:52:07.506Z,6.60
2017-09-02T22:54:34.393Z,5.90
2017-09-02T22:57:01.218Z,4.90
2017-09-02T22:59:28.048Z,8.20
2017-09-02T23:01:55.292Z,5.37
2017-09-02T23:04:22.115Z,4.63
2017-09-02T23:06:49.357Z,6.50
2017-09-02T23:09:16.216Z,4.60
2017-09-02T23:11:44.207Z,4.83
2017-09-02T23:14:11.028Z,6.23
2017-09-02T23:16:37.880Z,5.27
2017-09-02T23:19:04.712Z,5.93
2017-09-02T23:21:31.557Z,6.80
2017-09-02T23:23:58.397Z,7.47
2017-09-02T23:26:26.485Z,6.43
2017-09-02T23:28:53.324Z,5.37
2017-09-02T23:31:20.369Z,5.63
2017-09-02T23:33:47.221Z,6.80
2017-09-02T23:36:14.052Z,6.40
2017-09-02T23:41:31.256Z,5.03
2017-09-02T23:43:58.833Z,6.50
2017-09-02T23:46:25.649Z,5.07
2017-09-02T23:48:52.880Z,5.27
2017-09-02T23:51:19.708Z,4.60
2017-09-02T23:53:46.926Z,4.63
2017-09-02T23:58:57.180Z,5.20
